sensor_id;sensor_type;location;lat;lon;timestamp;temperature;humidity
56478;DHT22;42382;53.210;5.772;2023-08-08T00:02:05;15.60;79.20
56478;DHT22;42382;53.210;5.772;2023-08-08T00:04:31;15.60;79.20
56478;DHT22;42382;53.210;5.772;2023-08-08T00:06:57;15.60;79.10
56478;DHT22;42382;53.210;5.772;2023-08-08T00:09:22;15.60;78.90
56478;DHT22;42382;53.210;5.772;2023-08-08T00:11:48;15.50;78.80
56478;DHT22;42382;53.210;5.772;2023-08-08T00:14:15;15.60;78.70
56478;DHT22;42382;53.210;5.772;2023-08-08T00:16:41;15.50;78.50
56478;DHT22;42382;53.210;5.772;2023-08-08T00:19:07;15.50;78.40
56478;DHT22;42382;53.210;5.772;2023-08-08T00:21:32;15.50;78.40
56478;DHT22;42382;53.210;5.772;2023-08-08T00:23:58;15.50;78.50
56478;DHT22;42382;53.210;5.772;2023-08-08T00:26:23;15.40;78.50
56478;DHT22;42382;53.210;5.772;2023-08-08T00:28:49;15.40;78.60
56478;DHT22;42382;53.210;5.772;2023-08-08T00:31:15;15.40;78.90
56478;DHT22;42382;53.210;5.772;2023-08-08T00:33:43;15.40;79.00
56478;DHT22;42382;53.210;5.772;2023-08-08T00:36:08;15.40;79.20
56478;DHT22;42382;53.210;5.772;2023-08-08T00:38:34;15.30;79.20
56478;DHT22;42382;53.210;5.772;2023-08-08T00:41:00;15.30;79.40
56478;DHT22;42382;53.210;5.772;2023-08-08T00:43:26;15.30;79.50
56478;DHT22;42382;53.210;5.772;2023-08-08T00:45:52;15.30;79.70
56478;DHT22;42382;53.210;5.772;2023-08-08T00:48:18;15.30;80.00
56478;DHT22;42382;53.210;5.772;2023-08-08T00:50:45;15.30;80.10
56478;DHT22;42382;53.210;5.772;2023-08-08T00:53:11;15.30;80.20
56478;DHT22;42382;53.210;5.772;2023-08-08T00:55:37;15.30;80.00
56478;DHT22;42382;53.210;5.772;2023-08-08T00:58:04;15.30;80.40
56478;DHT22;42382;53.210;5.772;2023-08-08T01:00:29;15.20;80.60
56478;DHT22;42382;53.210;5.772;2023-08-08T01:02:55;15.20;80.50
56478;DHT22;42382;53.210;5.772;2023-08-08T01:05:21;15.10;80.90
56478;DHT22;42382;53.210;5.772;2023-08-08T01:07:52;15.10;80.80
56478;DHT22;42382;53.210;5.772;2023-08-08T01:10:26;15.10;80.60
56478;DHT22;42382;53.210;5.772;2023-08-08T01:12:56;15.20;80.60
56478;DHT22;42382;53.210;5.772;2023-08-08T01:15:25;15.10;80.40
56478;DHT22;42382;53.210;5.772;2023-08-08T01:17:52;15.10;80.20
56478;DHT22;42382;53.210;5.772;2023-08-08T01:20:18;15.10;80.00
56478;DHT22;42382;53.210;5.772;2023-08-08T01:25:53;15.10;79.70
56478;DHT22;42382;53.210;5.772;2023-08-08T01:28:23;15.00;79.70
56478;DHT22;42382;53.210;5.772;2023-08-08T01:30:49;15.00;79.60
56478;DHT22;42382;53.210;5.772;2023-08-08T01:33:15;15.10;79.40
56478;DHT22;42382;53.210;5.772;2023-08-08T01:35:45;15.00;79.40
56478;DHT22;42382;53.210;5.772;2023-08-08T01:38:15;15.00;79.40
56478;DHT22;42382;53.210;5.772;2023-08-08T01:40:43;15.00;79.40
56478;DHT22;42382;53.210;5.772;2023-08-08T01:43:09;14.90;79.50
56478;DHT22;42382;53.210;5.772;2023-08-08T01:45:36;15.00;79.50
56478;DHT22;42382;53.210;5.772;2023-08-08T01:48:09;14.90;79.60
56478;DHT22;42382;53.210;5.772;2023-08-08T01:50:36;14.90;79.50
56478;DHT22;42382;53.210;5.772;2023-08-08T01:53:02;14.90;79.50
56478;DHT22;42382;53.210;5.772;2023-08-08T01:55:28;14.90;79.60
56478;DHT22;42382;53.210;5.772;2023-08-08T01:57:54;14.90;79.80
56478;DHT22;42382;53.210;5.772;2023-08-08T02:00:20;14.90;79.90
56478;DHT22;42382;53.210;5.772;2023-08-08T02:02:45;14.90;80.00
56478;DHT22;42382;53.210;5.772;2023-08-08T02:05:11;15.00;80.00
56478;DHT22;42382;53.210;5.772;2023-08-08T02:07:36;15.10;80.00
56478;DHT22;42382;53.210;5.772;2023-08-08T02:10:02;15.10;80.10
56478;DHT22;42382;53.210;5.772;2023-08-08T02:12:28;15.10;80.10
56478;DHT22;42382;53.210;5.772;2023-08-08T02:14:56;15.10;80.20
56478;DHT22;42382;53.210;5.772;2023-08-08T02:17:21;15.10;80.30
56478;DHT22;42382;53.210;5.772;2023-08-08T02:19:47;15.10;80.50
56478;DHT22;42382;53.210;5.772;2023-08-08T02:22:13;15.10;80.70
56478;DHT22;42382;53.210;5.772;2023-08-08T02:24:38;15.20;80.80
56478;DHT22;42382;53.210;5.772;2023-08-08T02:27:04;15.20;81.50
56478;DHT22;42382;53.210;5.772;2023-08-08T02:29:30;15.10;81.70
56478;DHT22;42382;53.210;5.772;2023-08-08T02:31:56;15.10;82.00
56478;DHT22;42382;53.210;5.772;2023-08-08T02:34:21;15.00;81.70
56478;DHT22;42382;53.210;5.772;2023-08-08T02:36:47;15.00;81.50
56478;DHT22;42382;53.210;5.772;2023-08-08T02:39:13;14.90;81.10
56478;DHT22;42382;53.210;5.772;2023-08-08T02:41:39;14.80;80.70
56478;DHT22;42382;53.210;5.772;2023-08-08T02:44:04;14.80;80.80
56478;DHT22;42382;53.210;5.772;2023-08-08T02:46:30;14.70;80.80
56478;DHT22;42382;53.210;5.772;2023-08-08T02:48:55;14.60;81.00
56478;DHT22;42382;53.210;5.772;2023-08-08T02:51:21;14.60;81.10
56478;DHT22;42382;53.210;5.772;2023-08-08T02:53:47;14.60;81.10
56478;DHT22;42382;53.210;5.772;2023-08-08T02:56:12;14.50;81.30
56478;DHT22;42382;53.210;5.772;2023-08-08T02:58:38;14.50;81.50
56478;DHT22;42382;53.210;5.772;2023-08-08T03:01:04;14.50;81.80
56478;DHT22;42382;53.210;5.772;2023-08-08T03:03:29;14.40;81.80
56478;DHT22;42382;53.210;5.772;2023-08-08T03:05:56;14.50;81.90
56478;DHT22;42382;53.210;5.772;2023-08-08T03:08:22;14.50;82.20
56478;DHT22;42382;53.210;5.772;2023-08-08T03:10:47;14.50;82.30
56478;DHT22;42382;53.210;5.772;2023-08-08T03:13:13;14.40;82.60
56478;DHT22;42382;53.210;5.772;2023-08-08T03:15:39;14.40;82.80
56478;DHT22;42382;53.210;5.772;2023-08-08T03:18:05;14.40;82.90
56478;DHT22;42382;53.210;5.772;2023-08-08T03:20:30;14.50;83.10
56478;DHT22;42382;53.210;5.772;2023-08-08T03:22:56;14.50;84.00
56478;DHT22;42382;53.210;5.772;2023-08-08T03:25:21;14.50;84.00
56478;DHT22;42382;53.210;5.772;2023-08-08T03:27:48;14.50;84.00
56478;DHT22;42382;53.210;5.772;2023-08-08T03:30:14;14.50;83.80
56478;DHT22;42382;53.210;5.772;2023-08-08T03:32:40;14.50;83.80
56478;DHT22;42382;53.210;5.772;2023-08-08T03:39:58;14.70;83.60
56478;DHT22;42382;53.210;5.772;2023-08-08T03:42:23;14.60;83.90
56478;DHT22;42382;53.210;5.772;2023-08-08T03:44:49;14.50;84.30
56478;DHT22;42382;53.210;5.772;2023-08-08T03:47:15;14.50;84.10
56478;DHT22;42382;53.210;5.772;2023-08-08T03:49:41;14.40;84.40
56478;DHT22;42382;53.210;5.772;2023-08-08T03:52:06;14.40;84.70
56478;DHT22;42382;53.210;5.772;2023-08-08T03:54:32;14.30;84.40
56478;DHT22;42382;53.210;5.772;2023-08-08T03:56:58;14.20;84.60
56478;DHT22;42382;53.210;5.772;2023-08-08T03:59:23;14.20;84.60
56478;DHT22;42382;53.210;5.772;2023-08-08T04:01:49;14.10;84.40
56478;DHT22;42382;53.210;5.772;2023-08-08T04:04:15;14.10;84.40
56478;DHT22;42382;53.210;5.772;2023-08-08T04:06:40;14.10;84.30
56478;DHT22;42382;53.210;5.772;2023-08-08T04:09:06;14.00;84.40
56478;DHT22;42382;53.210;5.772;2023-08-08T04:11:32;14.00;84.30
56478;DHT22;42382;53.210;5.772;2023-08-08T04:13:58;14.00;84.80
56478;DHT22;42382;53.210;5.772;2023-08-08T04:16:23;14.00;84.70
56478;DHT22;42382;53.210;5.772;2023-08-08T04:18:49;13.90;84.60
56478;DHT22;42382;53.210;5.772;2023-08-08T04:21:16;13.90;84.70
56478;DHT22;42382;53.210;5.772;2023-08-08T04:23:42;13.90;85.00
56478;DHT22;42382;53.210;5.772;2023-08-08T04:26:07;13.90;85.00
56478;DHT22;42382;53.210;5.772;2023-08-08T04:28:33;13.90;85.00
56478;DHT22;42382;53.210;5.772;2023-08-08T04:30:58;13.90;85.20
56478;DHT22;42382;53.210;5.772;2023-08-08T04:33:24;13.90;85.30
56478;DHT22;42382;53.210;5.772;2023-08-08T04:35:51;14.00;85.30
56478;DHT22;42382;53.210;5.772;2023-08-08T04:38:17;13.90;85.40
56478;DHT22;42382;53.210;5.772;2023-08-08T04:40:42;13.90;85.40
56478;DHT22;42382;53.210;5.772;2023-08-08T04:43:08;13.90;85.30
56478;DHT22;42382;53.210;5.772;2023-08-08T04:45:34;13.90;85.40
56478;DHT22;42382;53.210;5.772;2023-08-08T04:47:59;14.00;85.40
56478;DHT22;42382;53.210;5.772;2023-08-08T04:50:25;14.00;85.50
56478;DHT22;42382;53.210;5.772;2023-08-08T04:52:51;14.10;85.50
56478;DHT22;42382;53.210;5.772;2023-08-08T04:55:16;14.10;85.20
56478;DHT22;42382;53.210;5.772;2023-08-08T04:57:42;14.10;85.30
56478;DHT22;42382;53.210;5.772;2023-08-08T05:00:08;14.20;85.40
56478;DHT22;42382;53.210;5.772;2023-08-08T05:02:37;14.20;85.30
56478;DHT22;42382;53.210;5.772;2023-08-08T05:05:05;14.20;85.40
56478;DHT22;42382;53.210;5.772;2023-08-08T05:07:30;14.30;85.30
56478;DHT22;42382;53.210;5.772;2023-08-08T05:09:56;14.30;85.10
56478;DHT22;42382;53.210;5.772;2023-08-08T05:12:22;14.40;85.10
56478;DHT22;42382;53.210;5.772;2023-08-08T05:14:47;14.40;85.10
56478;DHT22;42382;53.210;5.772;2023-08-08T05:17:13;14.40;85.00
56478;DHT22;42382;53.210;5.772;2023-08-08T05:19:38;14.50;84.80
56478;DHT22;42382;53.210;5.772;2023-08-08T05:22:04;14.50;84.70
56478;DHT22;42382;53.210;5.772;2023-08-08T05:24:30;14.60;84.70
56478;DHT22;42382;53.210;5.772;2023-08-08T05:26:56;14.60;84.60
56478;DHT22;42382;53.210;5.772;2023-08-08T05:29:22;14.60;84.40
56478;DHT22;42382;53.210;5.772;2023-08-08T05:31:47;14.60;84.40
56478;DHT22;42382;53.210;5.772;2023-08-08T05:34:13;14.60;84.10
56478;DHT22;42382;53.210;5.772;2023-08-08T05:36:39;14.60;84.00
56478;DHT22;42382;53.210;5.772;2023-08-08T05:39:05;14.60;84.00
56478;DHT22;42382;53.210;5.772;2023-08-08T05:41:33;14.60;84.00
56478;DHT22;42382;53.210;5.772;2023-08-08T05:43:58;14.60;83.80
56478;DHT22;42382;53.210;5.772;2023-08-08T05:46:24;14.70;83.80
56478;DHT22;42382;53.210;5.772;2023-08-08T05:48:51;14.70;83.70
56478;DHT22;42382;53.210;5.772;2023-08-08T05:51:17;14.70;83.60
56478;DHT22;42382;53.210;5.772;2023-08-08T05:53:42;14.80;83.60
56478;DHT22;42382;53.210;5.772;2023-08-08T05:56:08;14.80;83.60
56478;DHT22;42382;53.210;5.772;2023-08-08T05:58:34;14.90;83.60
56478;DHT22;42382;53.210;5.772;2023-08-08T06:01:00;14.90;83.30
56478;DHT22;42382;53.210;5.772;2023-08-08T06:03:25;14.90;83.30
56478;DHT22;42382;53.210;5.772;2023-08-08T06:05:51;15.00;83.20
56478;DHT22;42382;53.210;5.772;2023-08-08T06:08:16;15.10;83.10
56478;DHT22;42382;53.210;5.772;2023-08-08T06:10:42;15.00;83.00
56478;DHT22;42382;53.210;5.772;2023-08-08T06:13:08;15.10;83.00
56478;DHT22;42382;53.210;5.772;2023-08-08T06:15:34;15.10;82.80
56478;DHT22;42382;53.210;5.772;2023-08-08T06:17:59;15.10;82.60
56478;DHT22;42382;53.210;5.772;2023-08-08T06:20:25;15.20;82.30
56478;DHT22;42382;53.210;5.772;2023-08-08T06:22:51;15.30;82.40
56478;DHT22;42382;53.210;5.772;2023-08-08T06:25:17;15.40;82.10
56478;DHT22;42382;53.210;5.772;2023-08-08T06:27:43;15.40;82.10
56478;DHT22;42382;53.210;5.772;2023-08-08T06:30:08;15.40;82.10
56478;DHT22;42382;53.210;5.772;2023-08-08T06:32:34;15.50;81.70
56478;DHT22;42382;53.210;5.772;2023-08-08T06:35:00;15.60;81.70
56478;DHT22;42382;53.210;5.772;2023-08-08T06:37:26;15.70;81.30
56478;DHT22;42382;53.210;5.772;2023-08-08T06:39:51;15.80;80.70
56478;DHT22;42382;53.210;5.772;2023-08-08T06:42:17;15.90;80.40
56478;DHT22;42382;53.210;5.772;2023-08-08T06:44:45;16.00;80.30
56478;DHT22;42382;53.210;5.772;2023-08-08T06:47:11;16.00;80.10
56478;DHT22;42382;53.210;5.772;2023-08-08T06:49:37;16.10;79.80
56478;DHT22;42382;53.210;5.772;2023-08-08T06:52:04;16.10;80.00
56478;DHT22;42382;53.210;5.772;2023-08-08T06:54:31;16.30;80.00
56478;DHT22;42382;53.210;5.772;2023-08-08T06:56:56;16.40;78.70
56478;DHT22;42382;53.210;5.772;2023-08-08T06:59:23;16.40;78.70
56478;DHT22;42382;53.210;5.772;2023-08-08T07:01:50;16.50;78.40
56478;DHT22;42382;53.210;5.772;2023-08-08T07:04:17;16.50;78.00
56478;DHT22;42382;53.210;5.772;2023-08-08T07:06:46;16.60;78.00
56478;DHT22;42382;53.210;5.772;2023-08-08T07:09:11;16.60;78.00
56478;DHT22;42382;53.210;5.772;2023-08-08T07:11:37;16.60;77.80
56478;DHT22;42382;53.210;5.772;2023-08-08T07:14:03;16.60;77.30
56478;DHT22;42382;53.210;5.772;2023-08-08T07:16:29;16.60;77.80
56478;DHT22;42382;53.210;5.772;2023-08-08T07:18:54;16.70;77.90
56478;DHT22;42382;53.210;5.772;2023-08-08T07:21:21;16.70;77.60
56478;DHT22;42382;53.210;5.772;2023-08-08T07:23:47;16.90;77.70
56478;DHT22;42382;53.210;5.772;2023-08-08T07:26:13;16.90;77.50
56478;DHT22;42382;53.210;5.772;2023-08-08T07:28:38;17.00;77.30
56478;DHT22;42382;53.210;5.772;2023-08-08T07:31:04;17.10;76.70
56478;DHT22;42382;53.210;5.772;2023-08-08T07:33:30;17.10;76.00
56478;DHT22;42382;53.210;5.772;2023-08-08T07:35:56;17.00;76.70
56478;DHT22;42382;53.210;5.772;2023-08-08T07:38:21;17.10;76.50
56478;DHT22;42382;53.210;5.772;2023-08-08T07:40:47;17.30;76.30
56478;DHT22;42382;53.210;5.772;2023-08-08T07:43:14;17.30;76.10
56478;DHT22;42382;53.210;5.772;2023-08-08T07:45:39;17.40;76.30
56478;DHT22;42382;53.210;5.772;2023-08-08T07:48:05;17.40;75.80
56478;DHT22;42382;53.210;5.772;2023-08-08T07:50:31;17.40;75.80
56478;DHT22;42382;53.210;5.772;2023-08-08T07:52:57;17.40;75.80
56478;DHT22;42382;53.210;5.772;2023-08-08T07:55:22;17.40;76.30
56478;DHT22;42382;53.210;5.772;2023-08-08T07:57:48;17.40;76.40
56478;DHT22;42382;53.210;5.772;2023-08-08T08:00:14;17.40;76.50
56478;DHT22;42382;53.210;5.772;2023-08-08T08:02:42;17.60;76.00
56478;DHT22;42382;53.210;5.772;2023-08-08T08:05:08;17.60;75.30
56478;DHT22;42382;53.210;5.772;2023-08-08T08:07:37;17.70;75.40
56478;DHT22;42382;53.210;5.772;2023-08-08T08:10:04;17.90;74.70
56478;DHT22;42382;53.210;5.772;2023-08-08T08:12:31;17.90;73.70
56478;DHT22;42382;53.210;5.772;2023-08-08T08:14:57;17.90;73.80
56478;DHT22;42382;53.210;5.772;2023-08-08T08:17:22;17.80;72.90
56478;DHT22;42382;53.210;5.772;2023-08-08T08:19:49;17.80;73.40
56478;DHT22;42382;53.210;5.772;2023-08-08T08:22:15;18.30;72.90
56478;DHT22;42382;53.210;5.772;2023-08-08T08:24:40;18.70;72.70
56478;DHT22;42382;53.210;5.772;2023-08-08T08:27:06;18.60;72.80
56478;DHT22;42382;53.210;5.772;2023-08-08T08:29:32;18.10;72.20
56478;DHT22;42382;53.210;5.772;2023-08-08T08:31:58;17.80;73.50
56478;DHT22;42382;53.210;5.772;2023-08-08T08:34:24;17.60;74.90
56478;DHT22;42382;53.210;5.772;2023-08-08T08:36:51;17.90;75.00
56478;DHT22;42382;53.210;5.772;2023-08-08T08:39:16;18.10;74.30
56478;DHT22;42382;53.210;5.772;2023-08-08T08:41:43;18.20;74.10
56478;DHT22;42382;53.210;5.772;2023-08-08T08:44:12;18.10;73.80
56478;DHT22;42382;53.210;5.772;2023-08-08T08:46:39;18.50;74.00
56478;DHT22;42382;53.210;5.772;2023-08-08T08:49:05;19.00;71.10
56478;DHT22;42382;53.210;5.772;2023-08-08T08:54:00;19.60;71.00
56478;DHT22;42382;53.210;5.772;2023-08-08T08:56:26;20.20;66.40
56478;DHT22;42382;53.210;5.772;2023-08-08T08:58:52;20.00;66.00
56478;DHT22;42382;53.210;5.772;2023-08-08T09:01:17;19.90;67.10
56478;DHT22;42382;53.210;5.772;2023-08-08T09:03:44;19.90;67.30
56478;DHT22;42382;53.210;5.772;2023-08-08T09:06:11;19.80;66.80
56478;DHT22;42382;53.210;5.772;2023-08-08T09:08:37;19.50;66.80
56478;DHT22;42382;53.210;5.772;2023-08-08T09:11:03;19.20;66.50
56478;DHT22;42382;53.210;5.772;2023-08-08T09:13:38;19.00;68.70
56478;DHT22;42382;53.210;5.772;2023-08-08T09:16:06;18.80;68.90
56478;DHT22;42382;53.210;5.772;2023-08-08T09:18:32;18.60;68.60
56478;DHT22;42382;53.210;5.772;2023-08-08T09:20:59;18.70;70.10
56478;DHT22;42382;53.210;5.772;2023-08-08T09:23:25;19.10;69.40
56478;DHT22;42382;53.210;5.772;2023-08-08T09:25:50;19.30;68.60
56478;DHT22;42382;53.210;5.772;2023-08-08T09:28:16;19.40;67.70
56478;DHT22;42382;53.210;5.772;2023-08-08T09:30:42;19.30;68.10
56478;DHT22;42382;53.210;5.772;2023-08-08T09:33:08;19.00;68.50
56478;DHT22;42382;53.210;5.772;2023-08-08T09:35:34;18.60;69.90
56478;DHT22;42382;53.210;5.772;2023-08-08T09:38:03;18.40;71.30
56478;DHT22;42382;53.210;5.772;2023-08-08T09:40:28;18.40;72.70
56478;DHT22;42382;53.210;5.772;2023-08-08T09:42:56;18.80;72.40
56478;DHT22;42382;53.210;5.772;2023-08-08T09:45:22;19.00;71.00
56478;DHT22;42382;53.210;5.772;2023-08-08T09:47:53;19.00;70.50
56478;DHT22;42382;53.210;5.772;2023-08-08T09:50:19;19.00;69.40
56478;DHT22;42382;53.210;5.772;2023-08-08T09:52:46;19.00;69.40
56478;DHT22;42382;53.210;5.772;2023-08-08T09:55:13;19.40;69.40
56478;DHT22;42382;53.210;5.772;2023-08-08T09:57:39;19.70;68.20
56478;DHT22;42382;53.210;5.772;2023-08-08T10:00:06;19.90;65.60
56478;DHT22;42382;53.210;5.772;2023-08-08T10:02:44;19.70;65.10
56478;DHT22;42382;53.210;5.772;2023-08-08T10:05:13;19.60;65.40
56478;DHT22;42382;53.210;5.772;2023-08-08T10:07:42;19.30;66.20
56478;DHT22;42382;53.210;5.772;2023-08-08T10:10:09;19.60;66.70
56478;DHT22;42382;53.210;5.772;2023-08-08T10:12:39;19.70;65.00
56478;DHT22;42382;53.210;5.772;2023-08-08T10:15:10;19.50;63.60
56478;DHT22;42382;53.210;5.772;2023-08-08T10:17:40;19.60;63.70
56478;DHT22;42382;53.210;5.772;2023-08-08T10:20:08;19.90;63.20
56478;DHT22;42382;53.210;5.772;2023-08-08T10:22:37;20.00;61.70
56478;DHT22;42382;53.210;5.772;2023-08-08T10:25:07;20.10;61.60
56478;DHT22;42382;53.210;5.772;2023-08-08T10:27:34;20.00;62.70
56478;DHT22;42382;53.210;5.772;2023-08-08T10:30:08;19.90;62.80
56478;DHT22;42382;53.210;5.772;2023-08-08T10:32:43;19.90;62.00
56478;DHT22;42382;53.210;5.772;2023-08-08T10:35:10;20.10;61.10
56478;DHT22;42382;53.210;5.772;2023-08-08T10:37:37;20.30;61.00
56478;DHT22;42382;53.210;5.772;2023-08-08T10:40:04;20.20;61.20
56478;DHT22;42382;53.210;5.772;2023-08-08T10:42:42;20.10;62.10
56478;DHT22;42382;53.210;5.772;2023-08-08T10:45:10;20.20;60.20
56478;DHT22;42382;53.210;5.772;2023-08-08T10:47:38;20.10;60.10
56478;DHT22;42382;53.210;5.772;2023-08-08T10:57:58;20.00;59.70
56478;DHT22;42382;53.210;5.772;2023-08-08T11:00:28;20.10;60.20
56478;DHT22;42382;53.210;5.772;2023-08-08T11:02:54;20.20;60.20
56478;DHT22;42382;53.210;5.772;2023-08-08T11:05:23;19.90;59.90
56478;DHT22;42382;53.210;5.772;2023-08-08T11:07:50;19.80;60.30
56478;DHT22;42382;53.210;5.772;2023-08-08T11:10:16;19.80;58.20
56478;DHT22;42382;53.210;5.772;2023-08-08T11:12:41;19.70;59.80
56478;DHT22;42382;53.210;5.772;2023-08-08T11:15:08;19.70;59.90
56478;DHT22;42382;53.210;5.772;2023-08-08T11:17:34;19.80;61.30
56478;DHT22;42382;53.210;5.772;2023-08-08T11:20:00;19.90;60.00
56478;DHT22;42382;53.210;5.772;2023-08-08T11:22:27;19.90;60.10
56478;DHT22;42382;53.210;5.772;2023-08-08T11:24:52;19.80;60.30
56478;DHT22;42382;53.210;5.772;2023-08-08T11:27:23;19.60;61.40
56478;DHT22;42382;53.210;5.772;2023-08-08T11:29:50;19.50;62.40
56478;DHT22;42382;53.210;5.772;2023-08-08T11:32:16;19.40;62.40
56478;DHT22;42382;53.210;5.772;2023-08-08T11:34:42;19.30;63.80
56478;DHT22;42382;53.210;5.772;2023-08-08T11:37:09;19.30;63.80
56478;DHT22;42382;53.210;5.772;2023-08-08T11:39:36;19.10;64.50
56478;DHT22;42382;53.210;5.772;2023-08-08T11:42:02;19.10;65.30
56478;DHT22;42382;53.210;5.772;2023-08-08T11:44:28;19.00;62.70
56478;DHT22;42382;53.210;5.772;2023-08-08T11:46:54;18.90;63.40
56478;DHT22;42382;53.210;5.772;2023-08-08T11:49:19;18.90;63.90
56478;DHT22;42382;53.210;5.772;2023-08-08T11:51:46;19.00;63.30
56478;DHT22;42382;53.210;5.772;2023-08-08T11:54:13;19.20;64.30
56478;DHT22;42382;53.210;5.772;2023-08-08T11:56:38;19.30;63.90
56478;DHT22;42382;53.210;5.772;2023-08-08T11:59:05;19.40;63.30
56478;DHT22;42382;53.210;5.772;2023-08-08T12:01:34;19.40;64.00
56478;DHT22;42382;53.210;5.772;2023-08-08T12:04:08;19.60;63.30
56478;DHT22;42382;53.210;5.772;2023-08-08T12:06:37;19.80;63.00
56478;DHT22;42382;53.210;5.772;2023-08-08T12:09:04;19.90;62.40
56478;DHT22;42382;53.210;5.772;2023-08-08T12:11:34;19.90;61.70
56478;DHT22;42382;53.210;5.772;2023-08-08T12:14:00;19.80;62.80
56478;DHT22;42382;53.210;5.772;2023-08-08T12:16:28;19.60;62.50
56478;DHT22;42382;53.210;5.772;2023-08-08T12:18:59;19.40;63.00
56478;DHT22;42382;53.210;5.772;2023-08-08T12:21:26;19.40;63.70
56478;DHT22;42382;53.210;5.772;2023-08-08T12:23:52;19.50;63.50
56478;DHT22;42382;53.210;5.772;2023-08-08T12:26:18;19.60;62.70
56478;DHT22;42382;53.210;5.772;2023-08-08T12:28:44;19.50;63.60
56478;DHT22;42382;53.210;5.772;2023-08-08T12:31:10;19.40;63.70
56478;DHT22;42382;53.210;5.772;2023-08-08T12:33:35;19.50;64.00
56478;DHT22;42382;53.210;5.772;2023-08-08T12:36:01;19.50;60.70
56478;DHT22;42382;53.210;5.772;2023-08-08T12:38:26;19.50;60.40
56478;DHT22;42382;53.210;5.772;2023-08-08T12:40:52;19.30;60.20
56478;DHT22;42382;53.210;5.772;2023-08-08T12:43:18;19.20;61.10
56478;DHT22;42382;53.210;5.772;2023-08-08T12:45:44;19.10;62.30
56478;DHT22;42382;53.210;5.772;2023-08-08T12:48:11;19.00;62.20
56478;DHT22;42382;53.210;5.772;2023-08-08T12:50:36;18.90;62.50
56478;DHT22;42382;53.210;5.772;2023-08-08T12:53:03;18.80;62.30
56478;DHT22;42382;53.210;5.772;2023-08-08T12:55:30;18.60;64.40
56478;DHT22;42382;53.210;5.772;2023-08-08T12:57:55;18.80;65.60
56478;DHT22;42382;53.210;5.772;2023-08-08T13:00:21;19.00;65.40
56478;DHT22;42382;53.210;5.772;2023-08-08T13:02:47;19.00;64.80
56478;DHT22;42382;53.210;5.772;2023-08-08T13:05:13;19.20;64.60
56478;DHT22;42382;53.210;5.772;2023-08-08T13:07:38;19.30;64.20
56478;DHT22;42382;53.210;5.772;2023-08-08T13:10:04;19.20;63.90
56478;DHT22;42382;53.210;5.772;2023-08-08T13:12:30;19.10;64.80
56478;DHT22;42382;53.210;5.772;2023-08-08T13:14:56;19.10;65.20
56478;DHT22;42382;53.210;5.772;2023-08-08T13:17:22;19.10;64.40
56478;DHT22;42382;53.210;5.772;2023-08-08T13:19:48;19.00;63.70
56478;DHT22;42382;53.210;5.772;2023-08-08T13:22:13;18.90;63.80
56478;DHT22;42382;53.210;5.772;2023-08-08T13:24:39;18.80;63.50
56478;DHT22;42382;53.210;5.772;2023-08-08T13:27:05;18.80;63.90
56478;DHT22;42382;53.210;5.772;2023-08-08T13:29:31;18.80;64.30
56478;DHT22;42382;53.210;5.772;2023-08-08T13:31:56;19.00;63.20
56478;DHT22;42382;53.210;5.772;2023-08-08T13:34:22;19.10;62.10
56478;DHT22;42382;53.210;5.772;2023-08-08T13:36:47;19.00;61.80
56478;DHT22;42382;53.210;5.772;2023-08-08T13:39:13;18.90;62.60
56478;DHT22;42382;53.210;5.772;2023-08-08T13:41:39;19.10;63.70
56478;DHT22;42382;53.210;5.772;2023-08-08T13:44:05;19.20;62.40
56478;DHT22;42382;53.210;5.772;2023-08-08T13:46:30;19.20;62.10
56478;DHT22;42382;53.210;5.772;2023-08-08T13:48:56;19.20;61.90
56478;DHT22;42382;53.210;5.772;2023-08-08T13:51:21;19.10;61.80
56478;DHT22;42382;53.210;5.772;2023-08-08T13:53:48;19.00;61.60
56478;DHT22;42382;53.210;5.772;2023-08-08T13:56:17;19.10;62.80
56478;DHT22;42382;53.210;5.772;2023-08-08T13:58:42;19.20;62.80
56478;DHT22;42382;53.210;5.772;2023-08-08T14:01:08;19.10;63.10
56478;DHT22;42382;53.210;5.772;2023-08-08T14:03:34;19.20;64.00
56478;DHT22;42382;53.210;5.772;2023-08-08T14:05:59;19.00;62.50
56478;DHT22;42382;53.210;5.772;2023-08-08T14:08:25;18.90;63.10
56478;DHT22;42382;53.210;5.772;2023-08-08T14:10:51;18.80;64.10
56478;DHT22;42382;53.210;5.772;2023-08-08T14:13:16;18.90;63.90
56478;DHT22;42382;53.210;5.772;2023-08-08T14:15:44;18.90;64.10
56478;DHT22;42382;53.210;5.772;2023-08-08T14:25:53;18.90;60.50
56478;DHT22;42382;53.210;5.772;2023-08-08T14:28:18;19.00;60.70
56478;DHT22;42382;53.210;5.772;2023-08-08T14:30:45;18.90;60.40
56478;DHT22;42382;53.210;5.772;2023-08-08T14:33:14;18.80;60.50
56478;DHT22;42382;53.210;5.772;2023-08-08T14:35:40;18.80;61.90
56478;DHT22;42382;53.210;5.772;2023-08-08T14:38:05;18.90;61.90
56478;DHT22;42382;53.210;5.772;2023-08-08T14:40:31;19.00;58.80
56478;DHT22;42382;53.210;5.772;2023-08-08T14:42:57;19.00;59.60
56478;DHT22;42382;53.210;5.772;2023-08-08T14:45:23;19.10;59.80
56478;DHT22;42382;53.210;5.772;2023-08-08T14:47:49;18.90;60.90
56478;DHT22;42382;53.210;5.772;2023-08-08T14:50:16;18.80;58.30
56478;DHT22;42382;53.210;5.772;2023-08-08T14:52:42;18.70;60.30
56478;DHT22;42382;53.210;5.772;2023-08-08T14:55:08;18.60;60.20
56478;DHT22;42382;53.210;5.772;2023-08-08T14:57:34;18.60;60.40
56478;DHT22;42382;53.210;5.772;2023-08-08T14:59:59;18.60;60.70
56478;DHT22;42382;53.210;5.772;2023-08-08T15:02:28;18.60;60.00
56478;DHT22;42382;53.210;5.772;2023-08-08T15:04:53;18.60;60.30
56478;DHT22;42382;53.210;5.772;2023-08-08T15:07:19;18.70;61.30
56478;DHT22;42382;53.210;5.772;2023-08-08T15:09:45;18.70;61.10
56478;DHT22;42382;53.210;5.772;2023-08-08T15:12:14;18.70;59.40
56478;DHT22;42382;53.210;5.772;2023-08-08T15:14:39;18.70;59.70
56478;DHT22;42382;53.210;5.772;2023-08-08T15:17:05;18.90;60.40
56478;DHT22;42382;53.210;5.772;2023-08-08T15:19:30;18.90;59.00
56478;DHT22;42382;53.210;5.772;2023-08-08T15:21:56;19.00;59.20
56478;DHT22;42382;53.210;5.772;2023-08-08T15:24:21;19.20;59.50
56478;DHT22;42382;53.210;5.772;2023-08-08T15:26:47;19.30;58.00
56478;DHT22;42382;53.210;5.772;2023-08-08T15:29:12;19.30;58.80
56478;DHT22;42382;53.210;5.772;2023-08-08T15:31:38;19.10;58.70
56478;DHT22;42382;53.210;5.772;2023-08-08T15:34:03;19.10;60.00
56478;DHT22;42382;53.210;5.772;2023-08-08T15:36:29;19.30;59.70
56478;DHT22;42382;53.210;5.772;2023-08-08T15:38:55;19.20;58.90
56478;DHT22;42382;53.210;5.772;2023-08-08T15:41:20;19.10;57.60
56478;DHT22;42382;53.210;5.772;2023-08-08T15:43:46;19.20;57.80
56478;DHT22;42382;53.210;5.772;2023-08-08T15:46:11;19.20;57.90
56478;DHT22;42382;53.210;5.772;2023-08-08T15:48:37;19.00;58.10
56478;DHT22;42382;53.210;5.772;2023-08-08T15:51:02;19.00;58.70